Time;durP1;ratioP1;P1;durP2;ratioP2;P2;SDS_P1;SDS_P2;PMS_P1;PMS_P2;Temp;Humidity;BMP_temperature;BMP_pressure;BME280_temperature;BME280_humidity;BME280_pressure;Samples;Min_cycle;Max_cycle;Signal;HPM_P1;HPM_P2
2021/03/05 00:00:43;;;;;;;55.50;21.52;;;;;;;2.97;81.65;100142.55;1752106;82;21066;-44
2021/03/05 00:03:12;;;;;;;50.15;22.37;;;;;;;3.06;80.68;100132.38;1752175;81;20982;-45
2021/03/05 00:05:41;;;;;;;75.50;23.12;;;;;;;3.14;80.04;100134.56;1752096;81;20978;-44
2021/03/05 00:08:12;;;;;;;49.25;20.75;;;;;;;3.22;79.68;100131.22;1752367;81;21353;-44
2021/03/05 00:10:41;;;;;;;52.78;21.75;;;;;;;3.25;79.49;100136.36;1752411;81;21500;-46
2021/03/05 00:13:10;;;;;;;45.50;21.40;;;;;;;3.26;79.12;100130.39;1752278;81;21090;-44
2021/03/05 00:15:43;;;;;;;55.17;22.65;;;;;;;3.26;79.03;100136.78;1752366;81;21009;-45
2021/03/05 00:18:13;;;;;;;45.05;21.35;;;;;;;3.22;78.96;100139.73;1752334;81;20947;-45
2021/03/05 00:20:44;;;;;;;101.45;24.07;;;;;;;3.21;78.89;100134.63;1752285;81;20955;-46
2021/03/05 00:23:12;;;;;;;41.48;20.80;;;;;;;3.18;78.85;100142.28;1752357;81;21452;-45
2021/03/05 00:25:41;;;;;;;40.58;20.55;;;;;;;3.13;78.87;100134.56;1752254;81;20954;-42
2021/03/05 00:28:09;;;;;;;42.43;21.80;;;;;;;3.08;78.92;100134.52;1752276;81;20966;-45
2021/03/05 00:30:37;;;;;;;43.52;20.88;;;;;;;3.07;78.85;100135.37;1752274;81;21026;-44
2021/03/05 00:33:07;;;;;;;36.90;19.87;;;;;;;3.05;78.86;100132.39;1752342;81;21026;-44
2021/03/05 00:35:37;;;;;;;72.27;22.65;;;;;;;3.06;78.82;100136.66;1751963;81;21356;-45
2021/03/05 00:38:06;;;;;;;105.27;24.82;;;;;;;3.04;78.82;100134.08;1752212;81;21061;-44
2021/03/05 00:40:34;;;;;;;95.03;25.30;;;;;;;3.00;78.85;100133.62;1752351;81;20999;-44
2021/03/05 00:43:03;;;;;;;281.00;36.23;;;;;;;3.01;78.87;100129.78;1752388;80;21038;-44
2021/03/05 00:45:31;;;;;;;219.30;34.05;;;;;;;3.05;78.78;100129.39;1752310;81;20991;-45
2021/03/05 00:47:59;;;;;;;125.27;26.20;;;;;;;3.04;78.69;100124.28;1752287;81;21204;-44
2021/03/05 00:50:28;;;;;;;150.05;29.10;;;;;;;3.02;78.77;100125.54;1749504;81;21090;-44
2021/03/05 00:52:55;;;;;;;90.28;24.65;;;;;;;2.98;78.78;100119.53;1752296;81;20955;-45
2021/03/05 00:55:24;;;;;;;722.10;68.65;;;;;;;2.94;78.75;100126.75;1752263;81;21093;-47
2021/03/05 00:57:54;;;;;;;455.48;41.98;;;;;;;2.88;78.86;100128.83;1752316;81;21442;-44
2021/03/05 01:00:24;;;;;;;1208.20;111.40;;;;;;;2.86;78.93;100126.69;1752340;81;21389;-43
2021/03/05 01:02:52;;;;;;;284.98;36.68;;;;;;;2.83;79.05;100132.22;1752213;81;21078;-45
2021/03/05 01:05:21;;;;;;;123.47;27.50;;;;;;;2.76;79.05;100136.82;1752361;81;21568;-45
2021/03/05 01:07:49;;;;;;;183.32;32.58;;;;;;;2.69;79.22;100138.49;1752246;81;21077;-46
2021/03/05 01:10:19;;;;;;;167.95;32.60;;;;;;;2.65;79.35;100137.59;1752205;81;21006;-43
2021/03/05 01:12:47;;;;;;;153.82;29.20;;;;;;;2.62;79.46;100140.12;1752306;81;21206;-44
2021/03/05 01:15:15;;;;;;;51.63;21.50;;;;;;;2.54;79.51;100137.50;1752269;81;21073;-45
2021/03/05 01:17:43;;;;;;;73.57;24.05;;;;;;;2.48;79.66;100140.41;1752299;81;21013;-45
2021/03/05 01:20:20;;;;;;;168.82;25.97;;;;;;;2.42;79.77;100147.61;1752225;81;21198;-45
2021/03/05 01:22:47;;;;;;;611.28;43.65;;;;;;;2.36;79.87;100155.19;1750238;81;21078;-42
2021/03/05 01:25:19;;;;;;;521.55;43.65;;;;;;;2.30;80.00;100164.51;1749587;82;21380;-44
2021/03/05 01:27:46;;;;;;;432.10;43.17;;;;;;;2.22;80.17;100158.47;1749524;82;20994;-44
2021/03/05 01:30:16;;;;;;;521.53;48.85;;;;;;;2.13;80.48;100161.77;1749536;82;21065;-44
2021/03/05 01:32:44;;;;;;;244.22;32.50;;;;;;;2.10;80.79;100173.64;1749557;82;21014;-43
2021/03/05 01:35:18;;;;;;;297.63;34.78;;;;;;;2.10;80.84;100176.19;1749629;82;21030;-46
2021/03/05 01:37:46;;;;;;;253.62;32.67;;;;;;;2.08;81.07;100178.74;1749670;82;22080;-43
2021/03/05 01:40:18;;;;;;;154.72;28.05;;;;;;;2.06;81.24;100175.72;1749587;82;20967;-46
2021/03/05 01:42:47;;;;;;;81.65;26.70;;;;;;;2.04;81.45;100174.84;1749532;80;21046;-44
2021/03/05 01:45:18;;;;;;;60.00;24.72;;;;;;;2.04;81.60;100181.23;1749548;82;21058;-44
2021/03/05 01:47:48;;;;;;;48.25;22.70;;;;;;;2.08;81.72;100183.85;1749572;82;21196;-44
2021/03/05 01:50:20;;;;;;;48.23;23.07;;;;;;;2.12;81.75;100186.00;1749650;82;22288;-45
2021/03/05 01:52:51;;;;;;;48.70;24.12;;;;;;;2.14;81.85;100190.70;1749635;82;21627;-43
2021/03/05 01:55:20;;;;;;;46.10;22.98;;;;;;;2.12;81.92;100186.88;1749557;82;21039;-44
2021/03/05 01:57:48;;;;;;;206.93;31.85;;;;;;;2.10;82.01;100189.83;1749560;82;20991;-46
2021/03/05 02:00:19;;;;;;;233.63;33.08;;;;;;;2.10;82.08;100194.94;1749519;82;21062;-44
2021/03/05 02:02:46;;;;;;;143.35;30.97;;;;;;;2.14;82.08;100198.37;1749586;82;21346;-44
2021/03/05 02:05:15;;;;;;;164.35;31.52;;;;;;;2.12;82.08;100194.94;1749571;82;21184;-45
2021/03/05 02:07:44;;;;;;;126.82;29.90;;;;;;;2.11;82.13;100198.34;1746952;82;21066;-42
2021/03/05 02:10:13;;;;;;;84.85;24.25;;;;;;;2.11;82.12;100202.16;1749544;82;21503;-45
2021/03/05 02:12:41;;;;;;;82.12;24.47;;;;;;;2.06;82.09;100205.95;1749561;82;21102;-45
2021/03/05 02:15:11;;;;;;;56.42;23.20;;;;;;;2.04;82.27;100211.88;1749573;82;21208;-43
2021/03/05 02:17:51;;;;;;;44.45;23.45;;;;;;;2.00;82.40;100219.50;1749543;82;21654;-45
2021/03/05 02:20:39;;;;;;;62.50;26.35;;;;;;;1.97;82.33;100224.57;1749597;82;20990;-45
2021/03/05 02:23:34;;;;;;;61.02;27.05;;;;;;;1.94;82.48;100221.11;1744956;82;21026;-46
2021/03/05 02:26:27;;;;;;;54.48;24.32;;;;;;;2.01;82.35;100219.94;1743787;82;20975;-45
2021/03/05 02:29:34;;;;;;;66.15;28.27;;;;;;;2.05;82.28;100218.30;1743936;82;22098;-44
2021/03/05 02:32:09;;;;;;;62.78;31.35;;;;;;;2.13;81.98;100219.64;1724486;82;21014;-46
2021/03/05 02:34:41;;;;;;;60.23;29.45;;;;;;;2.28;81.57;100222.39;1744096;82;21003;-44
2021/03/05 02:37:11;;;;;;;56.68;29.92;;;;;;;2.43;81.23;100221.70;1741341;82;21079;-42
2021/03/05 02:39:44;;;;;;;58.20;31.40;;;;;;;2.51;80.96;100228.59;1744022;82;20943;-46
2021/03/05 02:42:38;;;;;;;54.67;30.08;;;;;;;2.57;80.42;100220.58;1743973;80;21242;-45
2021/03/05 02:45:11;;;;;;;50.70;28.30;;;;;;;2.70;80.11;100231.79;1743955;82;21038;-44
2021/03/05 02:47:40;;;;;;;60.40;31.20;;;;;;;2.75;79.79;100233.53;1743998;82;21010;-46
2021/03/05 02:50:10;;;;;;;50.15;27.95;;;;;;;2.76;79.56;100236.11;1743931;82;21248;-45
2021/03/05 02:52:37;;;;;;;55.15;29.55;;;;;;;2.79;79.54;100236.58;1744008;82;20951;-44
2021/03/05 02:55:07;;;;;;;53.95;28.77;;;;;;;2.79;79.47;100238.70;1722775;82;21217;-46
2021/03/05 02:57:39;;;;;;;53.50;30.52;;;;;;;2.79;79.55;100243.81;1743887;82;21520;-46
2021/03/05 03:00:08;;;;;;;54.27;28.35;;;;;;;2.79;79.52;100234.02;1744063;82;21604;-44
2021/03/05 03:02:36;;;;;;;59.60;30.77;;;;;;;2.81;79.46;100240.01;1701027;82;21058;-45
2021/03/05 03:05:06;;;;;;;68.57;31.17;;;;;;;2.80;79.49;100235.73;1743984;82;21014;-46
2021/03/05 03:07:36;;;;;;;53.58;30.08;;;;;;;2.77;79.54;100240.80;1742679;82;22297;-45
2021/03/05 03:10:05;;;;;;;52.08;28.62;;;;;;;2.73;79.65;100245.03;1725422;82;21085;-43
2021/03/05 03:12:35;;;;;;;57.93;30.40;;;;;;;2.73;79.69;100239.92;1743932;82;20956;-45
2021/03/05 03:15:09;;;;;;;58.17;30.45;;;;;;;2.72;79.71;100239.05;1743937;82;20963;-46
2021/03/05 03:17:39;;;;;;;57.23;30.05;;;;;;;2.71;79.78;100245.00;1743563;82;20971;-46
2021/03/05 03:20:09;;;;;;;54.23;30.72;;;;;;;2.69;79.82;100244.13;1743892;82;21443;-46
2021/03/05 03:22:36;;;;;;;53.40;28.30;;;;;;;2.68;79.84;100252.64;1743872;82;20955;-44
2021/03/05 03:25:07;;;;;;;58.55;30.65;;;;;;;2.67;79.86;100253.48;1701206;82;21043;-43
2021/03/05 03:27:35;;;;;;;52.93;28.98;;;;;;;2.67;79.89;100262.88;1743897;82;21026;-47
2021/03/05 03:30:15;;;;;;;55.55;29.45;;;;;;;2.64;79.92;100267.92;1743966;82;21034;-45
2021/03/05 03:32:44;;;;;;;47.15;27.07;;;;;;;2.61;79.98;100264.06;1744021;82;21383;-43
2021/03/05 03:35:13;;;;;;;60.33;32.03;;;;;;;2.56;80.09;100261.03;1743895;82;20959;-46
2021/03/05 03:37:42;;;;;;;58.60;28.57;;;;;;;2.55;80.12;100256.77;1743915;82;21027;-44
2021/03/05 03:40:19;;;;;;;56.90;30.25;;;;;;;2.56;80.12;100259.76;1743927;82;21006;-44
2021/03/05 03:42:49;;;;;;;60.43;31.15;;;;;;;2.55;80.19;100266.98;1744038;80;21030;-44
2021/03/05 03:45:20;;;;;;;64.07;31.20;;;;;;;2.53;80.22;100266.11;1744145;82;21391;-44
2021/03/05 03:47:49;;;;;;;61.77;30.00;;;;;;;2.50;80.25;100268.64;1744089;82;21030;-42
2021/03/05 03:50:25;;;;;;;55.58;30.20;;;;;;;2.49;80.33;100272.03;1744252;82;21054;-45
2021/03/05 03:52:57;;;;;;;57.13;30.20;;;;;;;2.45;80.40;100277.95;1744212;82;21492;-46
2021/03/05 03:55:24;;;;;;;56.25;30.45;;;;;;;2.40;80.47;100277.02;1744142;82;20943;-45
2021/03/05 03:57:53;;;;;;;57.62;30.52;;;;;;;2.39;80.50;100282.97;1744126;82;21250;-44
2021/03/05 04:00:22;;;;;;;64.35;31.05;;;;;;;2.37;80.51;100284.65;1744061;82;21002;-46
2021/03/05 04:02:53;;;;;;;53.55;29.77;;;;;;;2.37;80.44;100283.37;1744126;82;21026;-44
2021/03/05 04:05:26;;;;;;;63.02;31.40;;;;;;;2.35;80.38;100283.37;1744191;82;21563;-45
2021/03/05 04:07:56;;;;;;;56.88;30.00;;;;;;;2.33;80.23;100285.05;1744301;82;21652;-44
2021/03/05 04:10:24;;;;;;;56.18;28.92;;;;;;;2.33;80.03;100286.33;1744196;82;21599;-46
2021/03/05 04:12:53;;;;;;;62.75;31.82;;;;;;;2.33;79.90;100279.94;1744003;82;20943;-46
2021/03/05 04:15:21;;;;;;;62.70;30.45;;;;;;;2.32;79.87;100289.72;1744042;82;21035;-46
2021/03/05 04:17:48;;;;;;;54.70;28.50;;;;;;;2.28;79.79;100286.25;1744082;82;20998;-44
2021/03/05 04:20:17;;;;;;;58.75;28.42;;;;;;;2.27;79.74;100287.09;1744131;82;21042;-44
2021/03/05 04:22:46;;;;;;;59.77;26.90;;;;;;;2.28;79.60;100286.25;1746175;82;21382;-43
2021/03/05 04:25:17;;;;;;;55.35;28.38;;;;;;;2.26;79.49;100284.50;1749651;82;21094;-45
2021/03/05 04:27:46;;;;;;;53.55;27.52;;;;;;;2.24;79.43;100281.08;1749602;82;21010;-45
2021/03/05 04:30:15;;;;;;;61.45;29.25;;;;;;;2.22;79.35;100285.31;1749646;82;20987;-46
2021/03/05 04:32:43;;;;;;;56.50;26.68;;;;;;;2.22;79.20;100290.42;1749790;82;21560;-45
2021/03/05 04:35:12;;;;;;;54.00;27.90;;;;;;;2.24;79.08;100292.58;1749580;82;21401;-46
2021/03/05 04:37:40;;;;;;;61.30;30.32;;;;;;;2.21;78.91;100293.41;1749720;82;21571;-43
2021/03/05 04:40:10;;;;;;;53.98;27.32;;;;;;;2.21;78.92;100295.09;1749599;82;21042;-44
2021/03/05 04:42:38;;;;;;;56.55;26.62;;;;;;;2.18;78.87;100302.31;1749531;80;20951;-48
2021/03/05 04:45:07;;;;;;;47.45;26.17;;;;;;;2.17;78.24;100306.98;1749730;82;21094;-45
2021/03/05 04:47:35;;;;;;;50.30;25.43;;;;;;;2.18;78.15;100310.38;1749639;82;21355;-43
2021/03/05 04:50:05;;;;;;;55.78;26.45;;;;;;;2.16;77.97;100319.31;1749597;82;20959;-44
2021/03/05 04:52:33;;;;;;;55.63;24.80;;;;;;;2.16;77.66;100326.97;1749601;82;20962;-45
2021/03/05 04:55:01;;;;;;;50.17;25.55;;;;;;;2.15;77.21;100327.81;1749630;82;21022;-45
2021/03/05 04:57:29;;;;;;;53.05;24.32;;;;;;;2.14;76.77;100333.73;1749631;82;21356;-46
2021/03/05 04:59:57;;;;;;;42.27;21.48;;;;;;;2.15;76.69;100338.87;1749629;82;21368;-47
2021/03/05 05:02:25;;;;;;;49.65;22.90;;;;;;;2.15;76.44;100345.26;1749517;82;21073;-44
2021/03/05 05:04:53;;;;;;;45.75;21.70;;;;;;;2.14;76.03;100350.33;1749656;82;21035;-46
2021/03/05 05:07:21;;;;;;;45.38;20.97;;;;;;;2.11;75.92;100351.56;1749614;82;21007;-47
2021/03/05 05:09:51;;;;;;;44.93;22.00;;;;;;;2.09;75.11;100357.07;1749625;82;21058;-45
2021/03/05 05:12:20;;;;;;;44.80;22.02;;;;;;;2.09;74.85;100354.11;1749592;82;21208;-47
2021/03/05 05:14:48;;;;;;;50.45;21.57;;;;;;;2.10;74.87;100352.00;1749518;82;20986;-47
2021/03/05 05:17:16;;;;;;;49.42;23.30;;;;;;;2.11;74.70;100344.78;1749660;82;20951;-43
2021/03/05 05:19:45;;;;;;;49.55;23.22;;;;;;;2.13;74.65;100353.31;1749583;82;21199;-45
2021/03/05 05:22:13;;;;;;;46.77;23.80;;;;;;;2.13;74.55;100353.72;1749222;82;21199;-47
2021/03/05 05:24:41;;;;;;;48.90;22.48;;;;;;;2.15;74.56;100359.30;1744064;82;21211;-47
2021/03/05 05:27:09;;;;;;;50.98;25.20;;;;;;;2.18;74.54;100365.29;1743989;82;21022;-45
2021/03/05 05:29:36;;;;;;;52.50;24.35;;;;;;;2.19;74.64;100370.84;1744021;82;20975;-44
2021/03/05 05:32:05;;;;;;;56.90;26.33;;;;;;;2.19;74.73;100370.44;1744007;82;21034;-43
2021/03/05 05:34:35;;;;;;;53.63;25.75;;;;;;;2.22;74.83;100369.60;1744052;82;20958;-43
2021/03/05 05:37:03;;;;;;;56.95;26.42;;;;;;;2.24;74.93;100373.91;1744105;82;21210;-44
2021/03/05 05:39:33;;;;;;;53.63;25.97;;;;;;;2.26;74.95;100371.36;1743006;82;20967;-44
2021/03/05 05:42:01;;;;;;;56.60;26.33;;;;;;;2.29;75.06;100374.83;1743963;80;21045;-43
2021/03/05 05:44:29;;;;;;;52.60;26.07;;;;;;;2.30;74.92;100373.98;1744016;82;21090;-43
2021/03/05 05:46:57;;;;;;;52.88;23.85;;;;;;;2.33;74.93;100378.30;1744059;82;21095;-45
2021/03/05 05:49:25;;;;;;;59.75;26.85;;;;;;;2.35;74.99;100377.02;1723190;82;21224;-45
2021/03/05 05:51:54;;;;;;;65.45;28.32;;;;;;;2.37;74.98;100377.90;1744043;82;21074;-45
2021/03/05 05:54:22;;;;;;;60.40;28.73;;;;;;;2.38;74.99;100378.34;1744025;82;21023;-46
2021/03/05 05:56:53;;;;;;;59.20;28.07;;;;;;;2.41;75.08;100383.52;1744044;82;21058;-44
2021/03/05 05:59:26;;;;;;;56.25;26.93;;;;;;;2.45;75.13;100386.55;1744029;82;20999;-44
2021/03/05 06:01:54;;;;;;;61.95;28.92;;;;;;;2.46;75.14;100380.61;1723416;82;21354;-42
2021/03/05 06:04:23;;;;;;;56.20;26.17;;;;;;;2.46;75.34;100393.78;1743911;82;21042;-44
2021/03/05 06:06:52;;;;;;;62.33;29.23;;;;;;;2.45;75.60;100394.22;1723277;82;21047;-45
2021/03/05 06:09:20;;;;;;;62.17;29.85;;;;;;;2.44;75.82;100392.50;1722931;82;21007;-43
2021/03/05 06:11:48;;;;;;;61.13;28.73;;;;;;;2.44;76.01;100398.89;1744072;82;21034;-44
2021/03/05 06:14:17;;;;;;;65.75;30.60;;;;;;;2.47;76.14;100401.48;1743959;82;21224;-44
2021/03/05 06:17:01;;;;;;;69.40;31.60;;;;;;;2.47;76.31;100405.32;1743973;82;21603;-44
2021/03/05 06:19:30;;;;;;;62.10;30.60;;;;;;;2.46;76.51;100412.55;1744228;82;20995;-44
2021/03/05 06:21:58;;;;;;;56.18;29.42;;;;;;;2.43;76.63;100410.80;1743894;82;21006;-44
2021/03/05 06:24:27;;;;;;;61.02;29.80;;;;;;;2.43;76.79;100413.78;1748575;82;21086;-43
2021/03/05 06:27:00;;;;;;;67.50;31.87;;;;;;;2.43;77.07;100412.51;1749586;82;21931;-46
2021/03/05 06:29:47;;;;;;;68.57;32.78;;;;;;;2.42;77.17;100417.17;1749516;82;20951;-43
2021/03/05 06:32:17;;;;;;;;;;;;;;;2.39;77.35;100420.94;1752164;82;21022;-45
2021/03/05 06:34:52;;;;;;;61.05;29.00;;;;;;;2.40;77.45;100423.94;1749563;82;20189;-44
2021/03/05 06:37:22;;;;;;;;;;;;;;;2.40;77.55;100429.04;1752163;82;20998;-43
2021/03/05 06:40:02;;;;;;;69.80;32.73;;;;;;;2.39;77.70;100430.75;1749597;82;21487;-44
2021/03/05 06:42:29;;;;;;;81.40;35.83;;;;;;;2.35;78.04;100432.83;1749468;80;21014;-46
2021/03/05 06:44:59;;;;;;;87.80;36.80;;;;;;;2.30;78.38;100435.73;1749668;82;21101;-45
2021/03/05 06:47:28;;;;;;;71.77;36.60;;;;;;;2.26;78.76;100437.78;1745740;82;21018;-43
2021/03/05 06:49:57;;;;;;;84.25;37.40;;;;;;;2.25;78.97;100439.48;1749632;82;21047;-44
2021/03/05 06:52:34;;;;;;;75.55;37.33;;;;;;;2.23;79.21;100438.61;1749530;82;21392;-44
2021/03/05 06:55:03;;;;;;;66.70;33.45;;;;;;;2.24;79.42;100439.45;1749439;82;20923;-46
2021/03/05 06:57:31;;;;;;;76.60;36.17;;;;;;;2.23;79.70;100447.55;1749527;82;20931;-45
2021/03/05 07:00:01;;;;;;;72.32;34.20;;;;;;;2.20;79.71;100453.89;1749499;82;21038;-46
2021/03/05 07:02:30;;;;;;;73.20;35.35;;;;;;;2.18;79.57;100445.75;1749461;82;21042;-46
2021/03/05 07:04:58;;;;;;;72.00;35.15;;;;;;;2.18;79.55;100440.23;1749557;82;21380;-48
2021/03/05 07:07:26;;;;;;;68.55;33.30;;;;;;;2.23;79.43;100452.66;1749481;82;20974;-44
2021/03/05 07:09:55;;;;;;;63.48;31.70;;;;;;;2.25;79.32;100445.88;1749506;82;20947;-43
2021/03/05 07:12:25;;;;;;;69.58;30.52;;;;;;;2.26;79.12;100452.70;1749499;82;20975;-45
2021/03/05 07:15:09;;;;;;;71.95;32.53;;;;;;;2.26;78.84;100459.09;1749654;82;20995;-45
2021/03/05 07:17:39;;;;;;;63.25;28.90;;;;;;;2.22;78.13;100467.95;1749520;82;22477;-43
2021/03/05 07:20:11;;;;;;;65.28;30.05;;;;;;;2.15;77.95;100463.18;1749253;82;21015;-45
2021/03/05 07:22:39;;;;;;;60.03;28.12;;;;;;;2.10;77.35;100467.33;1749398;82;21537;-42
2021/03/05 07:25:08;;;;;;;62.73;28.73;;;;;;;2.03;77.10;100466.39;1743908;82;21089;-46
2021/03/05 07:27:38;;;;;;;63.35;27.90;;;;;;;1.99;76.78;100465.47;1743947;82;20995;-44
2021/03/05 07:30:13;;;;;;;64.05;28.23;;;;;;;1.95;76.72;100468.81;1743176;82;21463;-43
2021/03/05 07:32:47;;;;;;;66.07;29.02;;;;;;;1.92;76.39;100477.70;1743914;82;21085;-46
2021/03/05 07:35:33;;;;;;;68.65;29.57;;;;;;;1.90;76.58;100475.94;1744000;82;21003;-47
2021/03/05 07:39:39;;;;;;;69.17;27.77;;;;;;;1.99;76.70;100478.23;1776972;78;22641;-45
2021/03/05 07:42:08;;;;;;;68.92;29.65;;;;;;;1.98;76.64;100480.34;1737746;81;21006;-45
2021/03/05 07:44:38;;;;;;;63.92;29.07;;;;;;;2.00;76.41;100477.40;1719460;83;21208;-47
2021/03/05 07:47:11;;;;;;;63.40;29.10;;;;;;;2.00;76.53;100477.80;1719560;83;20923;-44
2021/03/05 07:49:39;;;;;;;71.67;29.50;;;;;;;2.05;76.58;100477.89;1719625;82;20998;-46
2021/03/05 07:52:08;;;;;;;60.80;28.25;;;;;;;2.10;76.69;100479.70;1719551;83;21007;-45
2021/03/05 07:54:43;;;;;;;72.82;32.00;;;;;;;2.18;76.64;100475.13;1719631;82;20947;-45
2021/03/05 07:57:21;;;;;;;;;;;;;;;2.24;76.52;100468.83;1722201;83;21162;-45
2021/03/05 07:59:50;;;;;;;64.92;27.52;;;;;;;2.33;76.43;100474.51;1719621;82;20120;-42
2021/03/05 08:02:22;;;;;;;65.05;30.10;;;;;;;2.37;76.14;100464.77;1719592;83;20943;-47
2021/03/05 08:07:34;;;;;;;63.75;29.32;;;;;;;2.39;75.60;100472.04;1719650;82;20907;-46
2021/03/05 08:10:01;;;;;;;63.33;29.27;;;;;;;2.42;75.64;100465.73;1719567;82;21387;-46
2021/03/05 08:12:37;;;;;;;67.25;30.62;;;;;;;2.44;75.54;100473.84;1719577;83;21038;-44
2021/03/05 08:15:13;;;;;;;66.85;30.02;;;;;;;2.46;75.54;100471.72;1719645;83;21087;-44
2021/03/05 08:17:44;;;;;;;61.68;27.17;;;;;;;2.46;75.44;100469.17;1719519;83;21635;-44
2021/03/05 08:20:22;;;;;;;62.73;28.40;;;;;;;2.45;75.28;100469.60;1719615;83;20999;-46
2021/03/05 08:23:05;;;;;;;62.17;28.45;;;;;;;2.45;75.38;100464.48;1719744;83;21559;-45
2021/03/05 08:25:35;;;;;;;62.55;28.98;;;;;;;2.46;75.26;100471.72;1719542;82;20959;-45
2021/03/05 08:28:04;;;;;;;64.15;29.70;;;;;;;2.47;75.50;100464.09;1719607;83;21094;-46
2021/03/05 08:30:42;;;;;;;62.38;28.02;;;;;;;2.55;75.29;100461.66;1719551;82;20939;-45
2021/03/05 08:33:29;;;;;;;64.77;28.55;;;;;;;2.62;75.16;100466.42;1719569;82;20991;-45
2021/03/05 08:35:57;;;;;;;64.03;29.40;;;;;;;2.70;75.07;100470.80;1719632;83;21492;-43
2021/03/05 08:38:35;;;;;;;64.47;28.27;;;;;;;2.80;74.84;100470.52;1719724;83;21038;-45
2021/03/05 08:41:05;;;;;;;67.05;28.62;;;;;;;2.84;74.63;100471.44;1720341;83;21090;-46
2021/03/05 08:43:37;;;;;;;64.17;30.32;;;;;;;2.87;74.50;100470.19;1720262;82;21085;-45
2021/03/05 08:46:09;;;;;;;60.40;27.93;;;;;;;2.93;74.50;100472.83;1720274;82;20995;-45
2021/03/05 08:48:40;;;;;;;59.53;28.10;;;;;;;2.99;74.26;100472.89;1720330;83;21212;-46
2021/03/05 08:51:19;;;;;;;62.45;28.12;;;;;;;3.04;74.11;100474.24;1719721;83;21066;-48
2021/03/05 08:53:56;;;;;;;63.75;28.05;;;;;;;3.05;73.85;100473.84;1719755;83;21061;-43
2021/03/05 08:56:27;;;;;;;53.73;25.97;;;;;;;3.02;73.46;100479.33;1719415;83;20935;-42
2021/03/05 08:59:03;;;;;;;55.08;26.80;;;;;;;2.97;72.90;100473.73;1719849;82;20943;-47
2021/03/05 09:01:36;;;;;;;56.80;24.02;;;;;;;2.91;72.42;100478.34;1719749;83;20959;-44
2021/03/05 09:04:10;;;;;;;48.87;22.90;;;;;;;2.84;72.14;100482.94;1719693;83;20962;-45
2021/03/05 09:06:56;;;;;;;50.03;23.90;;;;;;;2.81;72.24;100481.63;1719802;83;21022;-45
2021/03/05 09:09:30;;;;;;;48.02;22.50;;;;;;;2.82;72.23;100480.34;1719922;82;21153;-44
2021/03/05 09:12:14;;;;;;;46.83;22.73;;;;;;;2.83;72.07;100479.50;1716355;82;21037;-43
2021/03/05 09:14:43;;;;;;;44.85;21.87;;;;;;;2.83;71.91;100486.33;1719897;83;21368;-44
2021/03/05 09:17:13;;;;;;;45.83;21.52;;;;;;;2.85;71.91;100485.50;1719754;83;20999;-46
2021/03/05 09:19:47;;;;;;;47.08;21.10;;;;;;;2.95;71.92;100488.20;1719849;83;21513;-44
2021/03/05 09:22:18;;;;;;;46.98;19.90;;;;;;;3.02;71.41;100488.71;1719906;83;21112;-44
2021/03/05 09:25:09;;;;;;;39.30;19.37;;;;;;;3.10;70.79;100494.78;1719820;83;21097;-43
2021/03/05 09:27:40;;;;;;;38.48;19.42;;;;;;;3.17;70.24;100494.45;1719781;83;21391;-45
2021/03/05 09:30:22;;;;;;;38.17;19.52;;;;;;;3.22;69.96;100498.34;1719699;82;20943;-44
2021/03/05 09:32:54;;;;;;;41.60;19.82;;;;;;;3.25;69.42;100503.06;1719753;83;21058;-46
2021/03/05 09:35:32;;;;;;;40.90;19.85;;;;;;;3.30;69.33;100503.12;1719701;83;21034;-45
2021/03/05 09:38:00;;;;;;;44.67;20.62;;;;;;;3.35;69.15;100501.92;1719732;83;21094;-44
2021/03/05 09:40:28;;;;;;;40.78;19.98;;;;;;;3.36;68.09;100502.36;1719868;83;22158;-44
2021/03/05 09:42:59;;;;;;;43.85;19.73;;;;;;;3.32;68.14;100496.33;1719729;82;21049;-46
2021/03/05 09:45:54;;;;;;;42.10;20.12;;;;;;;3.34;68.27;100503.59;1719858;83;21611;-46
2021/03/05 09:48:31;;;;;;;35.52;18.07;;;;;;;3.35;68.65;100504.04;1719749;83;21018;-46
2021/03/05 09:51:03;;;;;;;28.47;14.33;;;;;;;3.47;68.15;100497.36;1719877;82;21666;-43
2021/03/05 09:53:33;;;;;;;32.10;14.43;;;;;;;3.59;67.13;100495.80;1719788;83;21264;-45
2021/03/05 09:56:04;;;;;;;24.55;14.40;;;;;;;3.66;65.62;100492.86;1719691;83;20955;-43
2021/03/05 09:58:32;;;;;;;31.00;14.30;;;;;;;3.65;64.56;100492.86;1719736;83;21054;-43
2021/03/05 10:01:01;;;;;;;33.33;14.87;;;;;;;3.64;64.92;100493.70;1719746;82;21137;-46
2021/03/05 10:03:29;;;;;;;25.77;12.88;;;;;;;3.67;65.35;100489.48;1719734;83;21042;-45
2021/03/05 10:05:58;;;;;;;21.27;10.98;;;;;;;3.74;65.13;100487.42;1719724;83;21389;-45
2021/03/05 10:08:29;;;;;;;21.05;9.75;;;;;;;3.80;64.15;100492.16;1719704;82;21114;-44
2021/03/05 10:11:07;;;;;;;22.35;8.65;;;;;;;3.86;62.99;100490.52;1719796;83;20951;-43
2021/03/05 10:13:47;;;;;;;16.30;9.03;;;;;;;3.89;61.83;100493.52;1719708;83;20979;-45
2021/03/05 10:16:29;;;;;;;17.55;8.40;;;;;;;3.89;61.82;100492.23;1693062;83;21065;-46
2021/03/05 10:19:03;;;;;;;17.57;8.38;;;;;;;3.94;61.10;100501.26;1719810;83;22665;-44
2021/03/05 10:21:54;;;;;;;15.83;9.18;;;;;;;3.99;60.77;100495.34;1847631;76;22711;-43
2021/03/05 10:24:28;;;;;;;15.53;8.28;;;;;;;3.94;60.76;100497.01;1817860;78;21583;-44
2021/03/05 10:27:21;;;;;;;17.67;9.25;;;;;;;3.98;61.28;100497.87;1817836;77;21361;-46
2021/03/05 10:29:57;;;;;;;20.90;11.50;;;;;;;4.06;60.05;100501.80;1817696;79;21042;-46
2021/03/05 10:32:47;;;;;;;16.75;9.45;;;;;;;4.06;60.05;100501.80;1817814;79;20959;-46
2021/03/05 10:35:16;;;;;;;16.00;8.23;;;;;;;4.04;60.62;100492.80;1817731;79;21304;-46
2021/03/05 10:37:44;;;;;;;18.07;9.25;;;;;;;4.09;60.53;100483.48;1817792;77;21595;-47
2021/03/05 10:40:14;;;;;;;21.27;9.13;;;;;;;4.17;60.50;100485.67;1817755;77;21433;-46
2021/03/05 10:42:42;;;;;;;16.07;8.88;;;;;;;4.25;60.49;100483.59;1798014;79;21054;-43
2021/03/05 10:49:48;;;;;;;19.85;9.88;;;;;;;4.47;58.68;100470.53;1785525;80;21026;-46
2021/03/05 10:52:21;;;;;;;21.02;11.28;;;;;;;4.47;58.68;100470.53;1785599;80;20919;-46
2021/03/05 10:54:51;;;;;;;21.35;11.70;;;;;;;4.44;59.04;100470.52;1785474;80;21057;-44
2021/03/05 10:57:20;;;;;;;21.07;10.55;;;;;;;4.43;58.76;100470.08;1785524;80;21003;-43
2021/03/05 10:59:48;;;;;;;18.10;10.75;;;;;;;4.48;58.73;100476.50;1785553;80;21010;-45
2021/03/05 11:02:18;;;;;;;21.27;10.98;;;;;;;4.57;58.21;100467.17;1785545;80;21041;-44
2021/03/05 11:04:50;;;;;;;19.92;10.32;;;;;;;4.52;58.29;100465.00;1785634;80;21009;-45
2021/03/05 11:07:20;;;;;;;18.20;9.20;;;;;;;4.54;57.82;100459.88;1785676;80;21201;-43
2021/03/05 11:09:49;;;;;;;18.27;9.93;;;;;;;4.50;58.54;100457.73;1785534;80;21642;-44
2021/03/05 11:12:19;;;;;;;20.43;10.50;;;;;;;4.55;58.87;100459.05;1785574;80;20970;-46
2021/03/05 11:14:48;;;;;;;17.90;10.13;;;;;;;4.68;58.78;100454.86;1785546;79;21062;-45
2021/03/05 11:17:18;;;;;;;18.30;10.10;;;;;;;4.80;59.01;100456.19;1785624;80;21033;-48
2021/03/05 11:19:47;;;;;;;18.80;10.72;;;;;;;4.96;58.58;100453.72;1785537;79;21622;-45
2021/03/05 11:22:16;;;;;;;17.17;9.50;;;;;;;5.03;57.98;100452.89;1785448;80;20895;-44
2021/03/05 11:24:44;;;;;;;16.73;8.95;;;;;;;5.09;58.13;100456.75;1785546;80;21018;-46
2021/03/05 11:27:13;;;;;;;15.25;9.18;;;;;;;5.18;57.33;100467.08;1785547;80;21022;-45
2021/03/05 11:29:42;;;;;;;15.95;8.78;;;;;;;5.10;57.73;100468.73;1785548;80;20978;-46
2021/03/05 11:32:11;;;;;;;420.00;23.22;;;;;;;5.00;57.18;100478.53;1785264;80;22279;-43
2021/03/05 11:34:39;;;;;;;119.87;12.95;;;;;;;4.89;57.31;100476.75;1784906;80;21009;-43
2021/03/05 11:37:09;;;;;;;35.40;9.93;;;;;;;4.86;57.31;100472.89;1785041;80;20926;-45
2021/03/05 11:39:38;;;;;;;19.07;8.50;;;;;;;4.92;57.36;100478.90;1784936;80;20958;-44
2021/03/05 11:42:07;;;;;;;16.97;9.13;;;;;;;4.83;57.80;100479.29;1784902;79;20918;-42
2021/03/05 11:44:35;;;;;;;19.60;10.18;;;;;;;4.83;57.80;100479.29;1785058;79;21201;-45